Map

Track Data

SID SEASON NUMBER BASIN SUBBASIN NAME ISO_TIME NATURE LAT LON WMO_WIND WMO_PRES WMO_AGENCY TRACK_TYPE DIST2LAND LANDFALL IFLAG USA_AGENCY USA_ATCF_ID USA_LAT USA_LON USA_RECORD USA_STATUS USA_WIND USA_PRES USA_SSHS USA_R34_NE USA_R34_SE USA_R34_SW USA_R34_NW USA_R50_NE USA_R50_SE USA_R50_SW USA_R50_NW USA_R64_NE USA_R64_SE USA_R64_SW USA_R64_NW USA_POCI USA_ROCI USA_RMW USA_EYE TOKYO_LAT TOKYO_LON TOKYO_GRADE TOKYO_WIND TOKYO_PRES TOKYO_R50_DIR TOKYO_R50_LONG TOKYO_R50_SHORT TOKYO_R30_DIR TOKYO_R30_LONG TOKYO_R30_SHORT TOKYO_LAND CMA_LAT CMA_LON CMA_CAT CMA_WIND CMA_PRES HKO_LAT HKO_LON HKO_CAT HKO_WIND HKO_PRES NEWDELHI_LAT NEWDELHI_LON NEWDELHI_GRADE NEWDELHI_WIND NEWDELHI_PRES NEWDELHI_CI NEWDELHI_DP NEWDELHI_POCI REUNION_LAT REUNION_LON REUNION_TYPE REUNION_WIND REUNION_PRES REUNION_TNUM REUNION_CI REUNION_RMW REUNION_R34_NE REUNION_R34_SE REUNION_R34_SW REUNION_R34_NW REUNION_R50_NE REUNION_R50_SE REUNION_R50_SW REUNION_R50_NW REUNION_R64_NE REUNION_R64_SE REUNION_R64_SW REUNION_R64_NW BOM_LAT BOM_LON BOM_TYPE BOM_WIND BOM_PRES BOM_TNUM BOM_CI BOM_RMW BOM_R34_NE BOM_R34_SE BOM_R34_SW BOM_R34_NW BOM_R50_NE BOM_R50_SE BOM_R50_SW BOM_R50_NW BOM_R64_NE BOM_R64_SE BOM_R64_SW BOM_R64_NW BOM_ROCI BOM_POCI BOM_EYE BOM_POS_METHOD BOM_PRES_METHOD NADI_LAT NADI_LON NADI_CAT NADI_WIND NADI_PRES WELLINGTON_LAT WELLINGTON_LON WELLINGTON_WIND WELLINGTON_PRES DS824_LAT DS824_LON DS824_STAGE DS824_WIND DS824_PRES TD9636_LAT TD9636_LON TD9636_STAGE TD9636_WIND TD9636_PRES TD9635_LAT TD9635_LON TD9635_WIND TD9635_PRES TD9635_ROCI NEUMANN_LAT NEUMANN_LON NEUMANN_CLASS NEUMANN_WIND NEUMANN_PRES MLC_LAT MLC_LON MLC_CLASS MLC_WIND MLC_PRES USA_GUST BOM_GUST BOM_GUST_PER REUNION_GUST REUNION_GUST_PER USA_SEAHGT USA_SEARAD_NE USA_SEARAD_SE USA_SEARAD_SW USA_SEARAD_NW STORM_SPEED STORM_DIR
1915213N19089 1915 24 NI BB NOT_NAMED 1915-07-31 15:00:00 NR 18.9000 88.8000 main 270 248 __________O___ -1 18.9000 88.8000 1 4 334
1915213N19089 1915 24 NI BB NOT_NAMED 1915-07-31 18:00:00 NR 19.0875 88.7002 main 248 228 __________P___ -1 19.0875 88.7002 1 4 333
1915213N19089 1915 24 NI BB NOT_NAMED 1915-07-31 21:00:00 NR 19.2700 88.6002 main 228 206 __________P___ -1 19.2700 88.6002 1 4 332
1915213N19089 1915 24 NI BB NOT_NAMED 1915-08-01 00:00:00 TS 19.4740 88.4801 main 206 191 _________OP___ -1 19.6000 88.4000 TC 64 19.4425 88.5001 1 4 328
1915213N19089 1915 24 NI BB NOT_NAMED 1915-08-01 03:00:00 TS 19.6300 88.3667 main 191 168 _________PO___ -1 19.6900 88.3000 TC 64 19.6000 88.4000 4 4 324
1915213N19089 1915 24 NI BB NOT_NAMED 1915-08-01 06:00:00 TS 19.7653 88.2571 main 168 153 _________OP___ -1 19.8000 88.2000 TC 64 19.7394 88.2999 4 3 323
1915213N19089 1915 24 NI BB NOT_NAMED 1915-08-01 09:00:00 TS 19.9037 88.1499 main 145 138 _________PP___ -1 19.9425 88.1000 TC 64 19.8650 88.1999 4 3 325
1915213N19089 1915 24 NI BB NOT_NAMED 1915-08-01 12:00:00 TS 20.0416 88.0500 main 130 118 _________OP___ -1 20.1000 88.0000 TC 64 19.9831 88.0999 4 3 326
1915213N19089 1915 24 NI BB NOT_NAMED 1915-08-01 15:00:00 TS 20.1787 87.9500 main 118 103 _________PO___ -1 20.2575 87.9000 TC 64 20.1000 88.0000 4 3 326
1915213N19089 1915 24 NI BB NOT_NAMED 1915-08-01 18:00:00 TS 20.3125 87.8540 main 103 89 _________OP___ -1 20.4000 87.8000 TC 64 20.2249 87.9080 4 3 324
1915213N19089 1915 24 NI BB NOT_NAMED 1915-08-01 21:00:00 TS 20.4249 87.7611 main 89 76 _________PP___ -1 20.5000 87.7074 TC 64 20.3499 87.8149 4 3 321
1915213N19089 1915 24 NI BB NOT_NAMED 1915-08-02 00:00:00 TS 20.5375 87.6571 main 76 52 _________OP___ -1 20.6000 87.6000 TC 64 20.4749 87.7143 4 3 319
1915213N19089 1915 24 NI BB NOT_NAMED 1915-08-02 03:00:00 TS 20.6750 87.5288 main 52 41 _________PO___ -1 20.7500 87.4575 TC 64 20.6000 87.6000 4 4 317
1915213N19089 1915 24 NI BB NOT_NAMED 1915-08-02 06:00:00 TS 20.8146 87.3802 main 41 23 _________OP___ -1 20.9000 87.3000 TC 64 20.7291 87.4604 4 4 312
1915213N19089 1915 24 NI BB NOT_NAMED 1915-08-02 09:00:00 TS 20.9325 87.2250 main 23 23 _________PP___ -1 21.0075 87.1425 TC 64 20.8576 87.3075 4 4 308
1915213N19089 1915 24 NI BB NOT_NAMED 1915-08-02 12:00:00 TS 21.0411 87.0755 main 23 20 _________OP___ -1 21.1000 87.0000 TC 64 20.9822 87.1510 4 3 310
1915213N19089 1915 24 NI BB NOT_NAMED 1915-08-02 15:00:00 TS 21.1500 86.9500 main 10 10 _________PO___ -1 21.2000 86.9000 TC 55 21.1000 87.0000 4 3 316
1915213N19089 1915 24 NI BB NOT_NAMED 1915-08-02 18:00:00 TS 21.2411 86.8660 main 10 0 _________OP___ -1 21.3000 86.8000 TC 47 21.1821 86.9319 4 2 317
1915213N19089 1915 24 NI BB NOT_NAMED 1915-08-02 21:00:00 TS 21.3155 86.7853 main 0 0 _________PP___ -1 21.3697 86.7096 TC 38 21.2613 86.8610 4 3 309
1915213N19089 1915 24 NI BB NOT_NAMED 1915-08-03 00:00:00 TS 21.4299 86.6173 main 0 0 _________OP___ -1 21.5000 86.5000 TC 30 21.3599 86.7347 4 6 305
1915213N19089 1915 24 NI BB NOT_NAMED 1915-08-03 03:00:00 TS 21.6426 86.2802 main 0 0 _________PO___ -1 21.7851 86.0604 TC 30 21.5000 86.5000 1 9 303
1915213N19089 1915 24 NI BB NOT_NAMED 1915-08-03 06:00:00 TS 21.9137 85.8076 main 0 0 _________OP___ -1 22.1000 85.5000 TC 30 21.7273 86.1153 1 11 300
1915213N19089 1915 24 NI BB NOT_NAMED 1915-08-03 09:00:00 TS 22.1611 85.2981 main 0 0 _________PP___ -1 22.3296 84.9798 TC 30 21.9925 85.6163 1 11 295
1915213N19089 1915 24 NI BB NOT_NAMED 1915-08-03 12:00:00 TS 22.3807 84.7170 main 0 0 _________OP___ -1 22.5000 84.4000 TC 30 22.2614 85.0340 1 12 289
1915213N19089 1915 24 NI BB NOT_NAMED 1915-08-03 15:00:00 TS 22.5538 84.0573 main 0 0 _________PO___ -1 22.6076 83.7147 TC 30 22.5000 84.4000 1 13 283
1915213N19089 1915 24 NI BB NOT_NAMED 1915-08-03 18:00:00 TS 22.6688 83.3651 main 0 0 _________OP___ -1 22.7000 83.0000 TC 30 22.6375 83.7303 1 13 280
1915213N19089 1915 24 NI BB NOT_NAMED 1915-08-03 21:00:00 TS 22.7857 82.6728 main 0 0 _________PP___ -1 22.8274 82.3199 TC 30 22.7439 83.0257 1 13 282
1915213N19089 1915 24 NI BB NOT_NAMED 1915-08-04 00:00:00 TS 22.9266 82.0167 main 0 0 _________OP___ -1 23.0000 81.7000 TC 30 22.8532 82.3334 1 12 286
1915213N19089 1915 24 NI BB NOT_NAMED 1915-08-04 03:00:00 TS 23.1136 81.4312 main 0 0 _________PO___ -1 23.2272 81.1624 TC 30 23.0000 81.7000 1 11 294
1915213N19089 1915 24 NI BB NOT_NAMED 1915-08-04 06:00:00 TS 23.3675 80.9267 main 0 0 _________OP___ -1 23.5000 80.7000 TC 30 23.2350 81.1533 1 10 301
1915213N19089 1915 24 NI BB NOT_NAMED 1915-08-04 09:00:00 TS 23.6557 80.4678 main 0 0 _________PP___ -1 23.7999 80.2625 TC 30 23.5115 80.6732 1 10 307
1915213N19089 1915 24 NI BB NOT_NAMED 1915-08-04 12:00:00 TS 23.9536 80.0782 main 0 0 _________OP___ -1 24.1000 79.9000 TC 30 23.8072 80.2564 1 9 312
1915213N19089 1915 24 NI BB NOT_NAMED 1915-08-04 15:00:00 TS 24.2287 79.7636 main 0 0 _________PO___ -1 24.3573 79.6272 TC 30 24.1000 79.9000 1 8 315
1915213N19089 1915 24 NI BB NOT_NAMED 1915-08-04 18:00:00 TS 24.4885 79.4839 main 0 0 _________OP___ -1 24.6000 79.4000 TC 30 24.3769 79.5677 1 7 317
1915213N19089 1915 24 NI BB NOT_NAMED 1915-08-04 21:00:00 TS 24.7585 79.2111 main 0 0 _________PP___ -1 24.8725 79.1276 TC 30 24.6444 79.2946 1 7 318
1915213N19089 1915 24 NI BB NOT_NAMED 1915-08-05 00:00:00 TS 24.9948 78.9871 main 0 0 _________OP___ -1 25.1000 78.9000 TC 30 24.8896 79.0742 1 5 320
1915213N19089 1915 24 NI BB NOT_NAMED 1915-08-05 03:00:00 TS 25.1575 78.8387 main 0 0 _________PO___ -1 25.2149 78.7773 TC 30 25.1000 78.9000 1 4 320
1915213N19089 1915 24 NI BB NOT_NAMED 1915-08-05 06:00:00 TS 25.2763 78.7241 main 0 0 _________OP___ -1 25.3000 78.7000 TC 30 25.2526 78.7482 1 3 321
1915213N19089 1915 24 NI BB NOT_NAMED 1915-08-05 09:00:00 TS 25.4074 78.6159 main 0 0 _________PP___ -1 25.4425 78.5925 TC 30 25.3722 78.6393 1 3 326
1915213N19089 1915 24 NI BB NOT_NAMED 1915-08-05 12:00:00 TS 25.5404 78.5304 main 0 0 _________OP___ -1 25.6000 78.5000 TC 30 25.4808 78.5608 1 3 334
1915213N19089 1915 24 NI BB NOT_NAMED 1915-08-05 15:00:00 TS 25.6712 78.4712 main 0 0 _________PO___ -1 25.7425 78.4425 TC 30 25.6000 78.5000 1 3 341
1915213N19089 1915 24 NI BB NOT_NAMED 1915-08-05 18:00:00 TS 25.8124 78.4262 main 0 0 _________OP___ -1 25.9000 78.4000 TC 30 25.7467 78.4459 1 3 345
1915213N19089 1915 24 NI BB NOT_NAMED 1915-08-05 21:00:00 TS 25.9866 78.3783 main 0 0 _________PP___ -1 26.0900 78.3526 TC 30 25.9176 78.3954 1 4 346
1915213N19089 1915 24 NI BB NOT_NAMED 1915-08-06 00:00:00 TS 26.1698 78.3314 main 0 0 _________OP___ -1 26.3000 78.3000 TC 30 26.1048 78.3471 1 3 347
1915213N19089 1915 24 NI BB NOT_NAMED 1915-08-06 03:00:00 NR 26.3000 78.3000 main 0 __________O___ -1 TC 26.3000 78.3000 1 3 342

About IBTrACS Database

This database is a web-friendly format of International Best Track Archive for Climate Stewardship (IBTrACS), a global best track data archive curated by NOAA dating back to 1842.

Updated: 2021-12-03